Nearby METAR Reports

 

KPRB - Paso Robles, California, USA
Distance from station: SW 1mi, 1km
Updated: 03/26/2015 5:53pm
Clear
Clear
 Wind from SSW
Wind: SSW 10 mph , 17 km/h
Temperature: 88°F , 31°C
Dew Point: 36°F , 2°C
Humidity: 16%
Barometer: 30.03 inHg , 1016.9 hPa
Clouds: Clear
Visibility: 10 miles , 16 km
2015/03/27 00:53 KPRB 270053Z AUTO 21009KT 10SM CLR 31/02 A3003 RMK AO2 SLP165 T03110022 TSNO $
KSBP - San Luis Obispo, California, USA
Distance from station: S 30mi, 49km
Updated: 03/26/2015 5:56pm
Clear
Clear
 Wind from NW
Wind: NW 10 mph , 17 km/h
Temperature: 79°F , 26°C
Dew Point: 43°F , 6°C
Humidity: 28%
Barometer: 30.04 inHg , 1017.3 hPa
Clouds: Clear
Visibility: 10 miles , 16 km
2015/03/27 00:56 KSBP 270056Z 31009KT 10SM CLR 26/06 A3004 RMK AO2 SLP170 T02610061
 
KSMX - Santa Maria, California, USA
Distance from station: S 54mi, 87km
Updated: 03/26/2015 6:51pm
Clear
Clear
 Wind from calm
Wind: Calm
Temperature: 73°F , 23°C
Dew Point: 46°F , 8°C
Humidity: 38%
Barometer: 30.06 inHg , 1017.9 hPa
Clouds: Clear
Visibility: 10 miles , 16 km
2015/03/27 01:51 KSMX 270151Z 00000KT 10SM CLR 23/08 A3006 RMK AO2 SLP180 T02280078
KNLC - Lemoore Nas/Reev, California, USA
Distance from station: NE 58mi, 94km
Updated: 03/26/2015 5:56pm
Clear
Clear
 Wind from ENE
Wind: ENE 6 mph , 9 km/h
Temperature: 86°F , 30°C
Dew Point: 41°F , 5°C
Humidity: 20%
Barometer: 30.04 inHg , 1017.3 hPa
Clouds: Clear
Visibility: 10 miles , 16 km
2015/03/27 00:56 KNLC 270056Z 07005KT 10SM CLR 30/05 A3004 RMK AO2 SLP172 RH/20 T03000050
 
KVBG - Vandenberg Afb, California, USA
Distance from station: S 65mi, 105km
Updated: 03/26/2015 4:55pm
NOT Current
Clear
Clear
 Wind from NNW
Wind: NNW 12 mph , 19 km/h
Temperature: 73°F , 23°C
Dew Point: 48°F , 9°C
Humidity: 41%
Barometer: 30.07 inHg , 1018.3 hPa
Clouds: Clear
Visibility: 10 miles , 16 km
2015/03/26 23:55 KVBG 262355Z 34010KT 10SM CLR 23/09 A3007 RMK AO2A SLP171 T02280089 10300 20228 56009 LAST
KLPC - Lompoc, California, USA
Distance from station: S 70mi, 113km
Updated: 03/26/2015 6:35pm
Clear
Clear
 Wind from W
Wind: W 7 mph , 11 km/h
Temperature: 72°F , 22°C
Dew Point: 48°F , 9°C
Humidity: 44%
Barometer: 30.06 inHg , 1017.9 hPa
Clouds: Clear
Visibility: 10 miles , 16 km
2015/03/27 01:35 KLPC 270135Z AUTO 26006KT 10SM CLR 22/09 A3006 RMK AO1
 
KHJO - Hanford, California, USA
Distance from station: NE 72mi, 116km
Updated: 03/26/2015 5:53pm
Clear
Clear
 Wind from E
Wind: E 3 mph , 6 km/h
Temperature: 88°F , 31°C
Dew Point: 43°F , 6°C
Humidity: 21%
Barometer: 30.04 inHg , 1017.3 hPa
Clouds: Clear
Visibility: 10 miles , 16 km
2015/03/27 00:53 KHJO 270053Z AUTO 08003KT 10SM CLR 31/06 A3004 RMK AO2 SLP173 T03060056